sensor_id;sensor_type;location;lat;lon;timestamp;P1;durP1;ratioP1;P2;durP2;ratioP2
17398;SDS011;8817;48.170;8.592;2023-05-29T00:00:58;5.40;;;4.85;;
17398;SDS011;8817;48.170;8.592;2023-05-29T00:03:26;5.18;;;4.78;;
17398;SDS011;8817;48.170;8.592;2023-05-29T00:05:54;10.98;;;5.45;;
17398;SDS011;8817;48.170;8.592;2023-05-29T00:08:21;6.50;;;5.30;;
17398;SDS011;8817;48.170;8.592;2023-05-29T00:10:48;6.30;;;5.15;;
17398;SDS011;8817;48.170;8.592;2023-05-29T00:13:15;8.60;;;5.55;;
17398;SDS011;8817;48.170;8.592;2023-05-29T00:15:41;6.90;;;5.13;;
17398;SDS011;8817;48.170;8.592;2023-05-29T00:18:08;5.40;;;4.90;;
17398;SDS011;8817;48.170;8.592;2023-05-29T00:20:35;10.02;;;5.22;;
17398;SDS011;8817;48.170;8.592;2023-05-29T00:23:04;5.78;;;4.97;;
17398;SDS011;8817;48.170;8.592;2023-05-29T00:25:32;5.25;;;4.78;;
17398;SDS011;8817;48.170;8.592;2023-05-29T00:27:59;12.70;;;5.32;;
17398;SDS011;8817;48.170;8.592;2023-05-29T00:30:26;5.82;;;5.22;;
17398;SDS011;8817;48.170;8.592;2023-05-29T00:32:53;5.57;;;5.03;;
17398;SDS011;8817;48.170;8.592;2023-05-29T00:35:20;7.13;;;5.50;;
17398;SDS011;8817;48.170;8.592;2023-05-29T00:37:47;6.90;;;5.10;;
17398;SDS011;8817;48.170;8.592;2023-05-29T00:40:15;9.38;;;5.40;;
17398;SDS011;8817;48.170;8.592;2023-05-29T00:42:42;5.65;;;5.03;;
17398;SDS011;8817;48.170;8.592;2023-05-29T00:45:09;8.30;;;5.30;;
17398;SDS011;8817;48.170;8.592;2023-05-29T00:47:38;9.10;;;4.88;;
17398;SDS011;8817;48.170;8.592;2023-05-29T00:50:06;8.73;;;5.47;;
17398;SDS011;8817;48.170;8.592;2023-05-29T00:52:35;6.43;;;5.18;;
17398;SDS011;8817;48.170;8.592;2023-05-29T00:55:04;6.57;;;5.30;;
17398;SDS011;8817;48.170;8.592;2023-05-29T00:57:33;8.65;;;5.57;;
17398;SDS011;8817;48.170;8.592;2023-05-29T01:00:01;5.47;;;5.00;;
17398;SDS011;8817;48.170;8.592;2023-05-29T01:02:31;8.50;;;5.32;;
17398;SDS011;8817;48.170;8.592;2023-05-29T01:04:58;7.68;;;5.68;;
17398;SDS011;8817;48.170;8.592;2023-05-29T01:07:25;5.90;;;5.40;;
17398;SDS011;8817;48.170;8.592;2023-05-29T01:09:52;6.07;;;5.47;;
17398;SDS011;8817;48.170;8.592;2023-05-29T01:12:23;6.63;;;5.72;;
17398;SDS011;8817;48.170;8.592;2023-05-29T01:15:04;9.40;;;5.38;;
17398;SDS011;8817;48.170;8.592;2023-05-29T01:17:38;6.03;;;5.43;;
17398;SDS011;8817;48.170;8.592;2023-05-29T01:20:17;9.13;;;5.60;;
17398;SDS011;8817;48.170;8.592;2023-05-29T01:25:51;6.28;;;5.70;;
17398;SDS011;8817;48.170;8.592;2023-05-29T01:28:32;5.88;;;5.22;;
17398;SDS011;8817;48.170;8.592;2023-05-29T01:31:03;5.60;;;5.13;;
17398;SDS011;8817;48.170;8.592;2023-05-29T01:33:32;6.35;;;5.10;;
17398;SDS011;8817;48.170;8.592;2023-05-29T01:35:59;12.80;;;5.57;;
17398;SDS011;8817;48.170;8.592;2023-05-29T01:38:26;6.85;;;5.30;;
17398;SDS011;8817;48.170;8.592;2023-05-29T01:40:53;6.25;;;5.15;;
17398;SDS011;8817;48.170;8.592;2023-05-29T01:43:20;5.90;;;5.40;;
17398;SDS011;8817;48.170;8.592;2023-05-29T01:45:48;6.30;;;5.60;;
17398;SDS011;8817;48.170;8.592;2023-05-29T01:48:15;7.25;;;5.53;;
17398;SDS011;8817;48.170;8.592;2023-05-29T01:50:43;6.47;;;5.28;;
17398;SDS011;8817;48.170;8.592;2023-05-29T01:53:12;7.57;;;5.20;;
17398;SDS011;8817;48.170;8.592;2023-05-29T01:55:40;6.07;;;5.13;;
17398;SDS011;8817;48.170;8.592;2023-05-29T01:58:07;7.00;;;5.38;;
17398;SDS011;8817;48.170;8.592;2023-05-29T02:00:35;5.68;;;5.07;;
17398;SDS011;8817;48.170;8.592;2023-05-29T02:03:04;6.13;;;5.53;;
17398;SDS011;8817;48.170;8.592;2023-05-29T02:05:31;6.07;;;5.50;;
17398;SDS011;8817;48.170;8.592;2023-05-29T02:07:58;6.20;;;5.40;;
17398;SDS011;8817;48.170;8.592;2023-05-29T02:10:24;5.88;;;5.38;;
17398;SDS011;8817;48.170;8.592;2023-05-29T02:12:51;5.88;;;5.10;;
17398;SDS011;8817;48.170;8.592;2023-05-29T02:15:18;7.88;;;5.68;;
17398;SDS011;8817;48.170;8.592;2023-05-29T02:17:45;8.45;;;5.68;;
17398;SDS011;8817;48.170;8.592;2023-05-29T02:20:13;5.50;;;5.00;;
17398;SDS011;8817;48.170;8.592;2023-05-29T02:22:40;5.55;;;4.93;;
17398;SDS011;8817;48.170;8.592;2023-05-29T02:25:08;5.47;;;4.97;;
17398;SDS011;8817;48.170;8.592;2023-05-29T02:27:35;5.70;;;5.20;;
17398;SDS011;8817;48.170;8.592;2023-05-29T02:30:02;6.30;;;5.45;;
17398;SDS011;8817;48.170;8.592;2023-05-29T02:32:30;5.65;;;5.05;;
17398;SDS011;8817;48.170;8.592;2023-05-29T02:34:57;10.45;;;5.47;;
17398;SDS011;8817;48.170;8.592;2023-05-29T02:37:26;5.88;;;5.20;;
17398;SDS011;8817;48.170;8.592;2023-05-29T02:39:53;6.45;;;5.43;;
17398;SDS011;8817;48.170;8.592;2023-05-29T02:42:20;5.30;;;4.90;;
17398;SDS011;8817;48.170;8.592;2023-05-29T02:44:47;7.22;;;5.30;;
17398;SDS011;8817;48.170;8.592;2023-05-29T02:47:13;5.50;;;5.00;;
17398;SDS011;8817;48.170;8.592;2023-05-29T02:49:41;7.72;;;5.45;;
17398;SDS011;8817;48.170;8.592;2023-05-29T02:52:08;5.97;;;5.38;;
17398;SDS011;8817;48.170;8.592;2023-05-29T02:54:36;7.97;;;4.97;;
17398;SDS011;8817;48.170;8.592;2023-05-29T02:57:03;7.85;;;4.82;;
17398;SDS011;8817;48.170;8.592;2023-05-29T02:59:31;6.53;;;4.95;;
17398;SDS011;8817;48.170;8.592;2023-05-29T03:01:58;5.85;;;5.35;;
17398;SDS011;8817;48.170;8.592;2023-05-29T03:04:25;5.68;;;5.15;;
17398;SDS011;8817;48.170;8.592;2023-05-29T03:06:53;5.97;;;5.38;;
17398;SDS011;8817;48.170;8.592;2023-05-29T03:09:20;6.07;;;5.50;;
17398;SDS011;8817;48.170;8.592;2023-05-29T03:11:49;6.93;;;5.32;;
17398;SDS011;8817;48.170;8.592;2023-05-29T03:14:17;5.82;;;5.32;;
17398;SDS011;8817;48.170;8.592;2023-05-29T03:16:46;6.63;;;5.43;;
17398;SDS011;8817;48.170;8.592;2023-05-29T03:19:14;6.00;;;5.50;;
17398;SDS011;8817;48.170;8.592;2023-05-29T03:21:41;6.63;;;5.30;;
17398;SDS011;8817;48.170;8.592;2023-05-29T03:24:08;8.82;;;5.35;;
17398;SDS011;8817;48.170;8.592;2023-05-29T03:26:36;6.85;;;5.10;;
17398;SDS011;8817;48.170;8.592;2023-05-29T03:29:04;7.15;;;5.40;;
17398;SDS011;8817;48.170;8.592;2023-05-29T03:31:32;7.35;;;5.28;;
17398;SDS011;8817;48.170;8.592;2023-05-29T03:33:59;5.93;;;5.43;;
17398;SDS011;8817;48.170;8.592;2023-05-29T03:36:26;5.68;;;5.20;;
17398;SDS011;8817;48.170;8.592;2023-05-29T03:38:53;6.63;;;5.40;;
17398;SDS011;8817;48.170;8.592;2023-05-29T03:41:20;6.88;;;5.43;;
17398;SDS011;8817;48.170;8.592;2023-05-29T03:43:47;6.93;;;5.20;;
17398;SDS011;8817;48.170;8.592;2023-05-29T03:46:15;7.25;;;5.65;;
17398;SDS011;8817;48.170;8.592;2023-05-29T03:48:42;9.00;;;5.40;;
17398;SDS011;8817;48.170;8.592;2023-05-29T03:51:09;6.47;;;5.80;;
17398;SDS011;8817;48.170;8.592;2023-05-29T03:53:36;7.82;;;6.05;;
17398;SDS011;8817;48.170;8.592;2023-05-29T03:56:03;6.07;;;5.47;;
17398;SDS011;8817;48.170;8.592;2023-05-29T03:58:30;5.95;;;5.38;;
17398;SDS011;8817;48.170;8.592;2023-05-29T04:00:57;6.30;;;5.70;;
17398;SDS011;8817;48.170;8.592;2023-05-29T04:03:25;6.50;;;5.45;;
17398;SDS011;8817;48.170;8.592;2023-05-29T04:05:54;7.15;;;5.40;;
17398;SDS011;8817;48.170;8.592;2023-05-29T04:08:21;5.30;;;4.80;;
17398;SDS011;8817;48.170;8.592;2023-05-29T04:10:48;5.93;;;5.30;;
17398;SDS011;8817;48.170;8.592;2023-05-29T04:13:18;6.05;;;5.50;;
17398;SDS011;8817;48.170;8.592;2023-05-29T04:15:45;9.85;;;6.10;;
17398;SDS011;8817;48.170;8.592;2023-05-29T04:18:12;6.10;;;5.45;;
17398;SDS011;8817;48.170;8.592;2023-05-29T04:20:41;5.60;;;5.10;;
17398;SDS011;8817;48.170;8.592;2023-05-29T04:23:10;5.70;;;5.10;;
17398;SDS011;8817;48.170;8.592;2023-05-29T04:25:37;7.03;;;5.28;;
17398;SDS011;8817;48.170;8.592;2023-05-29T04:28:04;5.80;;;5.30;;
17398;SDS011;8817;48.170;8.592;2023-05-29T04:30:31;12.80;;;5.63;;
17398;SDS011;8817;48.170;8.592;2023-05-29T04:32:58;8.10;;;5.32;;
17398;SDS011;8817;48.170;8.592;2023-05-29T04:35:25;9.00;;;5.55;;
17398;SDS011;8817;48.170;8.592;2023-05-29T04:37:54;8.20;;;5.20;;
17398;SDS011;8817;48.170;8.592;2023-05-29T04:40:22;6.07;;;5.47;;
17398;SDS011;8817;48.170;8.592;2023-05-29T04:42:49;5.70;;;5.20;;
17398;SDS011;8817;48.170;8.592;2023-05-29T04:45:19;5.95;;;5.22;;
17398;SDS011;8817;48.170;8.592;2023-05-29T04:47:46;5.78;;;5.22;;
17398;SDS011;8817;48.170;8.592;2023-05-29T04:50:13;8.30;;;5.47;;
17398;SDS011;8817;48.170;8.592;2023-05-29T04:52:41;8.88;;;5.45;;
17398;SDS011;8817;48.170;8.592;2023-05-29T04:55:09;8.38;;;5.30;;
17398;SDS011;8817;48.170;8.592;2023-05-29T04:57:37;5.78;;;5.30;;
17398;SDS011;8817;48.170;8.592;2023-05-29T05:00:04;10.40;;;5.85;;
17398;SDS011;8817;48.170;8.592;2023-05-29T05:02:34;6.53;;;5.50;;
17398;SDS011;8817;48.170;8.592;2023-05-29T05:05:01;6.88;;;5.25;;
17398;SDS011;8817;48.170;8.592;2023-05-29T05:07:28;5.93;;;5.32;;
17398;SDS011;8817;48.170;8.592;2023-05-29T05:09:55;5.65;;;5.13;;
17398;SDS011;8817;48.170;8.592;2023-05-29T05:12:23;6.47;;;5.43;;
17398;SDS011;8817;48.170;8.592;2023-05-29T05:14:50;5.68;;;5.22;;
17398;SDS011;8817;48.170;8.592;2023-05-29T05:17:17;6.97;;;5.30;;
17398;SDS011;8817;48.170;8.592;2023-05-29T05:19:45;6.20;;;5.30;;
17398;SDS011;8817;48.170;8.592;2023-05-29T05:22:14;6.63;;;5.50;;
17398;SDS011;8817;48.170;8.592;2023-05-29T05:24:41;5.80;;;5.30;;
17398;SDS011;8817;48.170;8.592;2023-05-29T05:27:08;5.65;;;5.10;;
17398;SDS011;8817;48.170;8.592;2023-05-29T05:29:36;5.93;;;5.25;;
17398;SDS011;8817;48.170;8.592;2023-05-29T05:32:03;6.28;;;5.35;;
17398;SDS011;8817;48.170;8.592;2023-05-29T05:34:31;10.02;;;5.30;;
17398;SDS011;8817;48.170;8.592;2023-05-29T05:36:58;6.30;;;5.45;;
17398;SDS011;8817;48.170;8.592;2023-05-29T05:39:25;8.20;;;5.05;;
17398;SDS011;8817;48.170;8.592;2023-05-29T05:41:52;9.95;;;5.55;;
17398;SDS011;8817;48.170;8.592;2023-05-29T05:44:19;6.20;;;5.35;;
17398;SDS011;8817;48.170;8.592;2023-05-29T05:46:47;5.60;;;5.20;;
17398;SDS011;8817;48.170;8.592;2023-05-29T05:49:14;5.93;;;5.43;;
17398;SDS011;8817;48.170;8.592;2023-05-29T05:51:41;6.05;;;5.45;;
17398;SDS011;8817;48.170;8.592;2023-05-29T05:54:08;6.75;;;5.43;;
17398;SDS011;8817;48.170;8.592;2023-05-29T05:56:35;6.03;;;5.40;;
17398;SDS011;8817;48.170;8.592;2023-05-29T05:59:02;7.53;;;5.50;;
17398;SDS011;8817;48.170;8.592;2023-05-29T06:01:29;5.90;;;5.40;;
17398;SDS011;8817;48.170;8.592;2023-05-29T06:03:57;6.55;;;5.72;;
17398;SDS011;8817;48.170;8.592;2023-05-29T06:06:24;5.65;;;5.15;;
17398;SDS011;8817;48.170;8.592;2023-05-29T06:08:52;5.68;;;5.05;;
17398;SDS011;8817;48.170;8.592;2023-05-29T06:11:18;5.78;;;5.22;;
17398;SDS011;8817;48.170;8.592;2023-05-29T06:13:45;5.25;;;4.80;;
17398;SDS011;8817;48.170;8.592;2023-05-29T06:16:12;6.30;;;5.22;;
17398;SDS011;8817;48.170;8.592;2023-05-29T06:18:39;6.20;;;5.60;;
17398;SDS011;8817;48.170;8.592;2023-05-29T06:21:07;7.72;;;5.47;;
17398;SDS011;8817;48.170;8.592;2023-05-29T06:23:34;5.72;;;5.13;;
17398;SDS011;8817;48.170;8.592;2023-05-29T06:26:02;5.50;;;5.00;;
17398;SDS011;8817;48.170;8.592;2023-05-29T06:28:29;5.82;;;4.78;;
17398;SDS011;8817;48.170;8.592;2023-05-29T06:30:56;6.75;;;5.57;;
17398;SDS011;8817;48.170;8.592;2023-05-29T06:33:23;5.70;;;5.00;;
17398;SDS011;8817;48.170;8.592;2023-05-29T06:35:50;6.22;;;5.20;;
17398;SDS011;8817;48.170;8.592;2023-05-29T06:38:18;7.15;;;5.22;;
17398;SDS011;8817;48.170;8.592;2023-05-29T06:40:45;5.68;;;5.20;;
17398;SDS011;8817;48.170;8.592;2023-05-29T06:43:12;5.90;;;5.22;;
17398;SDS011;8817;48.170;8.592;2023-05-29T06:45:39;5.95;;;5.40;;
17398;SDS011;8817;48.170;8.592;2023-05-29T06:48:06;5.50;;;5.10;;
17398;SDS011;8817;48.170;8.592;2023-05-29T06:50:33;5.53;;;5.03;;
17398;SDS011;8817;48.170;8.592;2023-05-29T06:53:00;5.47;;;4.97;;
17398;SDS011;8817;48.170;8.592;2023-05-29T06:55:28;7.65;;;5.22;;
17398;SDS011;8817;48.170;8.592;2023-05-29T06:57:55;5.65;;;4.75;;
17398;SDS011;8817;48.170;8.592;2023-05-29T07:00:22;6.25;;;4.63;;
17398;SDS011;8817;48.170;8.592;2023-05-29T07:02:49;5.25;;;4.75;;
17398;SDS011;8817;48.170;8.592;2023-05-29T07:05:16;8.15;;;4.75;;
17398;SDS011;8817;48.170;8.592;2023-05-29T07:07:43;8.30;;;5.13;;
17398;SDS011;8817;48.170;8.592;2023-05-29T07:10:10;5.55;;;4.97;;
17398;SDS011;8817;48.170;8.592;2023-05-29T07:12:38;5.43;;;4.90;;
17398;SDS011;8817;48.170;8.592;2023-05-29T07:15:05;5.40;;;4.90;;
17398;SDS011;8817;48.170;8.592;2023-05-29T07:17:33;6.45;;;5.10;;
17398;SDS011;8817;48.170;8.592;2023-05-29T07:19:59;6.20;;;5.00;;
17398;SDS011;8817;48.170;8.592;2023-05-29T07:22:27;7.30;;;4.93;;
17398;SDS011;8817;48.170;8.592;2023-05-29T07:24:54;5.25;;;4.85;;
17398;SDS011;8817;48.170;8.592;2023-05-29T07:27:20;7.57;;;5.10;;
17398;SDS011;8817;48.170;8.592;2023-05-29T07:29:49;5.38;;;4.88;;
17398;SDS011;8817;48.170;8.592;2023-05-29T07:32:15;5.57;;;4.90;;
17398;SDS011;8817;48.170;8.592;2023-05-29T07:34:42;9.95;;;4.97;;
17398;SDS011;8817;48.170;8.592;2023-05-29T07:37:09;7.30;;;4.80;;
17398;SDS011;8817;48.170;8.592;2023-05-29T07:39:37;5.95;;;4.78;;
17398;SDS011;8817;48.170;8.592;2023-05-29T07:42:04;6.97;;;4.95;;
17398;SDS011;8817;48.170;8.592;2023-05-29T07:44:32;6.32;;;5.25;;
17398;SDS011;8817;48.170;8.592;2023-05-29T07:47:00;5.28;;;4.80;;
17398;SDS011;8817;48.170;8.592;2023-05-29T07:49:27;5.65;;;5.00;;
17398;SDS011;8817;48.170;8.592;2023-05-29T07:51:54;9.00;;;4.95;;
17398;SDS011;8817;48.170;8.592;2023-05-29T07:54:21;5.38;;;4.40;;
17398;SDS011;8817;48.170;8.592;2023-05-29T07:56:48;5.63;;;4.85;;
17398;SDS011;8817;48.170;8.592;2023-05-29T07:59:16;5.82;;;4.80;;
17398;SDS011;8817;48.170;8.592;2023-05-29T08:01:43;5.15;;;4.65;;
17398;SDS011;8817;48.170;8.592;2023-05-29T08:04:11;5.75;;;4.60;;
17398;SDS011;8817;48.170;8.592;2023-05-29T08:06:38;5.13;;;4.72;;
17398;SDS011;8817;48.170;8.592;2023-05-29T08:09:07;6.30;;;4.45;;
17398;SDS011;8817;48.170;8.592;2023-05-29T08:11:35;5.85;;;5.25;;
17398;SDS011;8817;48.170;8.592;2023-05-29T08:14:02;6.10;;;4.90;;
17398;SDS011;8817;48.170;8.592;2023-05-29T08:16:29;5.20;;;4.70;;
17398;SDS011;8817;48.170;8.592;2023-05-29T08:18:56;7.15;;;4.80;;
17398;SDS011;8817;48.170;8.592;2023-05-29T08:21:25;5.93;;;4.68;;
17398;SDS011;8817;48.170;8.592;2023-05-29T08:23:52;6.28;;;4.70;;
17398;SDS011;8817;48.170;8.592;2023-05-29T08:26:19;6.22;;;5.18;;
17398;SDS011;8817;48.170;8.592;2023-05-29T08:28:46;5.65;;;4.88;;
17398;SDS011;8817;48.170;8.592;2023-05-29T08:31:13;6.13;;;4.95;;
17398;SDS011;8817;48.170;8.592;2023-05-29T08:33:40;5.00;;;4.60;;
17398;SDS011;8817;48.170;8.592;2023-05-29T08:36:07;5.88;;;4.82;;
17398;SDS011;8817;48.170;8.592;2023-05-29T08:38:35;5.68;;;5.05;;
17398;SDS011;8817;48.170;8.592;2023-05-29T08:41:02;5.15;;;4.75;;
17398;SDS011;8817;48.170;8.592;2023-05-29T08:43:31;5.40;;;4.90;;
17398;SDS011;8817;48.170;8.592;2023-05-29T08:45:59;5.18;;;4.65;;
17398;SDS011;8817;48.170;8.592;2023-05-29T08:48:28;7.82;;;4.80;;
17398;SDS011;8817;48.170;8.592;2023-05-29T08:50:56;5.18;;;4.55;;
17398;SDS011;8817;48.170;8.592;2023-05-29T08:53:24;5.00;;;4.50;;
17398;SDS011;8817;48.170;8.592;2023-05-29T08:55:53;5.15;;;4.65;;
17398;SDS011;8817;48.170;8.592;2023-05-29T08:58:21;5.50;;;5.00;;
17398;SDS011;8817;48.170;8.592;2023-05-29T09:00:48;5.13;;;4.63;;
17398;SDS011;8817;48.170;8.592;2023-05-29T09:03:16;5.00;;;4.57;;
17398;SDS011;8817;48.170;8.592;2023-05-29T09:05:45;6.07;;;4.78;;
17398;SDS011;8817;48.170;8.592;2023-05-29T09:08:12;5.70;;;4.45;;
17398;SDS011;8817;48.170;8.592;2023-05-29T09:10:40;4.93;;;4.38;;
17398;SDS011;8817;48.170;8.592;2023-05-29T09:13:10;4.93;;;4.50;;
17398;SDS011;8817;48.170;8.592;2023-05-29T09:15:38;6.78;;;4.90;;
17398;SDS011;8817;48.170;8.592;2023-05-29T09:18:08;5.18;;;4.65;;
17398;SDS011;8817;48.170;8.592;2023-05-29T09:20:35;5.22;;;4.63;;
17398;SDS011;8817;48.170;8.592;2023-05-29T09:23:02;5.22;;;4.50;;
17398;SDS011;8817;48.170;8.592;2023-05-29T09:25:31;5.25;;;4.75;;
17398;SDS011;8817;48.170;8.592;2023-05-29T09:27:59;5.25;;;4.60;;
17398;SDS011;8817;48.170;8.592;2023-05-29T09:30:37;5.13;;;4.70;;
17398;SDS011;8817;48.170;8.592;2023-05-29T09:33:05;5.10;;;4.60;;
17398;SDS011;8817;48.170;8.592;2023-05-29T09:35:34;5.45;;;4.40;;
17398;SDS011;8817;48.170;8.592;2023-05-29T09:38:02;7.15;;;4.72;;
17398;SDS011;8817;48.170;8.592;2023-05-29T09:40:29;5.00;;;4.57;;
17398;SDS011;8817;48.170;8.592;2023-05-29T09:43:01;5.82;;;4.80;;
17398;SDS011;8817;48.170;8.592;2023-05-29T09:45:30;5.43;;;4.70;;
17398;SDS011;8817;48.170;8.592;2023-05-29T09:47:59;4.80;;;4.20;;
17398;SDS011;8817;48.170;8.592;2023-05-29T09:50:26;5.70;;;4.57;;
17398;SDS011;8817;48.170;8.592;2023-05-29T09:52:54;4.82;;;4.32;;
17398;SDS011;8817;48.170;8.592;2023-05-29T09:55:23;5.30;;;4.70;;
17398;SDS011;8817;48.170;8.592;2023-05-29T09:57:52;4.78;;;4.40;;
17398;SDS011;8817;48.170;8.592;2023-05-29T10:00:21;5.53;;;4.55;;
17398;SDS011;8817;48.170;8.592;2023-05-29T10:02:48;6.03;;;4.55;;
17398;SDS011;8817;48.170;8.592;2023-05-29T10:05:17;4.90;;;4.50;;
17398;SDS011;8817;48.170;8.592;2023-05-29T10:07:46;6.03;;;4.93;;
17398;SDS011;8817;48.170;8.592;2023-05-29T10:10:18;4.85;;;4.40;;
17398;SDS011;8817;48.170;8.592;2023-05-29T10:12:48;4.93;;;4.53;;
17398;SDS011;8817;48.170;8.592;2023-05-29T10:15:16;5.35;;;4.40;;
17398;SDS011;8817;48.170;8.592;2023-05-29T10:17:49;5.10;;;4.65;;
17398;SDS011;8817;48.170;8.592;2023-05-29T10:20:19;5.18;;;4.63;;
17398;SDS011;8817;48.170;8.592;2023-05-29T10:22:49;5.53;;;5.00;;
17398;SDS011;8817;48.170;8.592;2023-05-29T10:25:18;6.10;;;4.78;;
17398;SDS011;8817;48.170;8.592;2023-05-29T10:27:46;5.22;;;4.70;;
17398;SDS011;8817;48.170;8.592;2023-05-29T10:30:15;4.85;;;4.45;;
17398;SDS011;8817;48.170;8.592;2023-05-29T10:35:55;7.38;;;4.80;;
17398;SDS011;8817;48.170;8.592;2023-05-29T10:38:27;5.43;;;4.60;;
17398;SDS011;8817;48.170;8.592;2023-05-29T10:40:54;5.05;;;4.57;;
17398;SDS011;8817;48.170;8.592;2023-05-29T10:43:29;4.78;;;4.30;;
17398;SDS011;8817;48.170;8.592;2023-05-29T10:45:58;5.03;;;4.53;;
17398;SDS011;8817;48.170;8.592;2023-05-29T10:48:38;5.45;;;4.93;;
17398;SDS011;8817;48.170;8.592;2023-05-29T10:51:08;5.13;;;4.70;;
17398;SDS011;8817;48.170;8.592;2023-05-29T10:53:50;4.95;;;4.50;;
17398;SDS011;8817;48.170;8.592;2023-05-29T10:56:20;6.10;;;4.80;;
17398;SDS011;8817;48.170;8.592;2023-05-29T10:58:51;5.03;;;4.50;;
17398;SDS011;8817;48.170;8.592;2023-05-29T11:01:20;5.28;;;4.70;;
17398;SDS011;8817;48.170;8.592;2023-05-29T11:03:48;5.13;;;4.63;;
17398;SDS011;8817;48.170;8.592;2023-05-29T11:06:19;8.80;;;4.40;;
17398;SDS011;8817;48.170;8.592;2023-05-29T11:08:52;5.10;;;4.60;;
17398;SDS011;8817;48.170;8.592;2023-05-29T11:11:29;4.90;;;4.50;;
17398;SDS011;8817;48.170;8.592;2023-05-29T11:14:00;4.60;;;4.20;;
17398;SDS011;8817;48.170;8.592;2023-05-29T11:16:36;5.10;;;4.60;;
17398;SDS011;8817;48.170;8.592;2023-05-29T11:19:04;6.50;;;4.70;;
17398;SDS011;8817;48.170;8.592;2023-05-29T11:21:37;4.55;;;4.25;;
17398;SDS011;8817;48.170;8.592;2023-05-29T11:24:19;5.90;;;4.20;;
17398;SDS011;8817;48.170;8.592;2023-05-29T11:26:50;4.38;;;4.07;;
17398;SDS011;8817;48.170;8.592;2023-05-29T11:29:20;4.53;;;4.13;;
17398;SDS011;8817;48.170;8.592;2023-05-29T11:31:48;8.23;;;4.15;;
17398;SDS011;8817;48.170;8.592;2023-05-29T11:34:21;5.68;;;4.35;;
17398;SDS011;8817;48.170;8.592;2023-05-29T11:36:52;4.80;;;4.35;;
17398;SDS011;8817;48.170;8.592;2023-05-29T11:39:19;4.40;;;4.15;;
17398;SDS011;8817;48.170;8.592;2023-05-29T11:41:49;5.15;;;4.68;;
17398;SDS011;8817;48.170;8.592;2023-05-29T11:44:18;5.63;;;4.60;;
17398;SDS011;8817;48.170;8.592;2023-05-29T11:46:45;4.95;;;4.53;;
17398;SDS011;8817;48.170;8.592;2023-05-29T11:49:12;7.28;;;4.60;;
17398;SDS011;8817;48.170;8.592;2023-05-29T11:51:41;4.60;;;4.30;;
17398;SDS011;8817;48.170;8.592;2023-05-29T11:54:12;5.38;;;4.70;;
17398;SDS011;8817;48.170;8.592;2023-05-29T11:56:39;7.85;;;4.55;;
17398;SDS011;8817;48.170;8.592;2023-05-29T11:59:10;4.70;;;4.30;;
17398;SDS011;8817;48.170;8.592;2023-05-29T12:01:37;4.97;;;4.57;;
17398;SDS011;8817;48.170;8.592;2023-05-29T12:04:13;4.57;;;4.18;;
17398;SDS011;8817;48.170;8.592;2023-05-29T12:06:41;5.53;;;4.60;;
17398;SDS011;8817;48.170;8.592;2023-05-29T12:09:08;5.03;;;4.40;;
17398;SDS011;8817;48.170;8.592;2023-05-29T12:11:36;6.00;;;4.47;;
17398;SDS011;8817;48.170;8.592;2023-05-29T12:14:03;4.90;;;4.40;;
17398;SDS011;8817;48.170;8.592;2023-05-29T12:16:30;6.97;;;4.57;;
17398;SDS011;8817;48.170;8.592;2023-05-29T12:19:00;4.68;;;4.28;;
17398;SDS011;8817;48.170;8.592;2023-05-29T12:21:27;4.78;;;4.38;;
17398;SDS011;8817;48.170;8.592;2023-05-29T12:23:54;5.22;;;4.60;;
17398;SDS011;8817;48.170;8.592;2023-05-29T12:26:21;4.60;;;4.30;;
17398;SDS011;8817;48.170;8.592;2023-05-29T12:28:50;5.18;;;4.50;;
17398;SDS011;8817;48.170;8.592;2023-05-29T12:31:27;5.47;;;4.82;;
17398;SDS011;8817;48.170;8.592;2023-05-29T12:33:58;4.75;;;4.43;;
17398;SDS011;8817;48.170;8.592;2023-05-29T12:36:26;5.28;;;4.60;;
17398;SDS011;8817;48.170;8.592;2023-05-29T12:38:53;4.78;;;4.38;;
17398;SDS011;8817;48.170;8.592;2023-05-29T12:41:26;5.03;;;4.53;;
17398;SDS011;8817;48.170;8.592;2023-05-29T12:43:55;5.00;;;4.53;;
17398;SDS011;8817;48.170;8.592;2023-05-29T12:46:23;5.97;;;4.53;;
17398;SDS011;8817;48.170;8.592;2023-05-29T12:48:52;5.00;;;4.57;;
17398;SDS011;8817;48.170;8.592;2023-05-29T12:51:22;6.72;;;4.60;;
17398;SDS011;8817;48.170;8.592;2023-05-29T12:53:50;5.00;;;4.63;;
17398;SDS011;8817;48.170;8.592;2023-05-29T12:56:20;6.00;;;4.10;;
17398;SDS011;8817;48.170;8.592;2023-05-29T12:58:48;5.10;;;4.60;;
17398;SDS011;8817;48.170;8.592;2023-05-29T13:01:17;5.00;;;4.55;;
17398;SDS011;8817;48.170;8.592;2023-05-29T13:03:45;6.05;;;4.50;;
17398;SDS011;8817;48.170;8.592;2023-05-29T13:06:12;4.70;;;4.38;;
17398;SDS011;8817;48.170;8.592;2023-05-29T13:08:39;4.90;;;4.38;;
17398;SDS011;8817;48.170;8.592;2023-05-29T13:11:06;4.63;;;4.22;;
17398;SDS011;8817;48.170;8.592;2023-05-29T13:13:33;4.95;;;4.53;;
17398;SDS011;8817;48.170;8.592;2023-05-29T13:16:00;4.90;;;4.50;;
17398;SDS011;8817;48.170;8.592;2023-05-29T13:18:29;4.78;;;4.28;;
17398;SDS011;8817;48.170;8.592;2023-05-29T13:20:56;4.95;;;4.57;;
17398;SDS011;8817;48.170;8.592;2023-05-29T13:23:23;4.75;;;4.35;;
17398;SDS011;8817;48.170;8.592;2023-05-29T13:25:50;5.10;;;4.70;;
17398;SDS011;8817;48.170;8.592;2023-05-29T13:28:17;6.03;;;4.43;;
17398;SDS011;8817;48.170;8.592;2023-05-29T13:30:44;5.97;;;4.47;;
17398;SDS011;8817;48.170;8.592;2023-05-29T13:33:11;4.85;;;4.28;;
17398;SDS011;8817;48.170;8.592;2023-05-29T13:35:39;6.13;;;4.15;;
17398;SDS011;8817;48.170;8.592;2023-05-29T13:38:06;5.07;;;4.63;;
17398;SDS011;8817;48.170;8.592;2023-05-29T13:40:33;5.72;;;4.65;;
17398;SDS011;8817;48.170;8.592;2023-05-29T13:43:00;4.88;;;4.40;;
17398;SDS011;8817;48.170;8.592;2023-05-29T13:45:27;4.97;;;4.53;;
17398;SDS011;8817;48.170;8.592;2023-05-29T13:47:55;4.90;;;4.28;;
17398;SDS011;8817;48.170;8.592;2023-05-29T13:50:22;4.85;;;4.45;;
17398;SDS011;8817;48.170;8.592;2023-05-29T13:52:51;4.90;;;4.40;;
17398;SDS011;8817;48.170;8.592;2023-05-29T13:55:18;4.65;;;4.32;;
17398;SDS011;8817;48.170;8.592;2023-05-29T13:57:45;5.00;;;4.45;;
17398;SDS011;8817;48.170;8.592;2023-05-29T14:00:12;5.32;;;4.57;;
17398;SDS011;8817;48.170;8.592;2023-05-29T14:02:40;4.90;;;4.50;;
17398;SDS011;8817;48.170;8.592;2023-05-29T14:05:07;4.70;;;4.40;;
17398;SDS011;8817;48.170;8.592;2023-05-29T14:07:36;7.32;;;4.70;;
17398;SDS011;8817;48.170;8.592;2023-05-29T14:10:05;4.60;;;4.30;;
17398;SDS011;8817;48.170;8.592;2023-05-29T14:12:32;9.32;;;5.00;;
17398;SDS011;8817;48.170;8.592;2023-05-29T14:14:59;4.90;;;4.60;;
17398;SDS011;8817;48.170;8.592;2023-05-29T14:17:26;6.32;;;4.70;;
17398;SDS011;8817;48.170;8.592;2023-05-29T14:19:53;5.03;;;4.65;;
17398;SDS011;8817;48.170;8.592;2023-05-29T14:22:21;7.57;;;4.50;;
17398;SDS011;8817;48.170;8.592;2023-05-29T14:24:48;4.82;;;4.43;;
17398;SDS011;8817;48.170;8.592;2023-05-29T14:27:16;4.85;;;4.45;;
17398;SDS011;8817;48.170;8.592;2023-05-29T14:29:43;5.13;;;4.47;;
17398;SDS011;8817;48.170;8.592;2023-05-29T14:32:11;5.10;;;4.60;;
17398;SDS011;8817;48.170;8.592;2023-05-29T14:34:38;4.75;;;4.30;;
17398;SDS011;8817;48.170;8.592;2023-05-29T14:37:05;4.40;;;4.15;;
17398;SDS011;8817;48.170;8.592;2023-05-29T14:39:32;4.55;;;4.22;;
17398;SDS011;8817;48.170;8.592;2023-05-29T14:41:59;4.60;;;4.30;;
17398;SDS011;8817;48.170;8.592;2023-05-29T14:44:28;4.97;;;4.28;;
17398;SDS011;8817;48.170;8.592;2023-05-29T14:46:55;4.50;;;4.20;;
17398;SDS011;8817;48.170;8.592;2023-05-29T14:49:21;4.30;;;4.05;;
17398;SDS011;8817;48.170;8.592;2023-05-29T14:51:49;8.52;;;4.40;;
17398;SDS011;8817;48.170;8.592;2023-05-29T14:54:17;4.50;;;4.20;;
17398;SDS011;8817;48.170;8.592;2023-05-29T14:56:44;5.13;;;4.30;;
17398;SDS011;8817;48.170;8.592;2023-05-29T14:59:11;4.40;;;4.10;;
17398;SDS011;8817;48.170;8.592;2023-05-29T15:01:40;6.10;;;4.07;;
17398;SDS011;8817;48.170;8.592;2023-05-29T15:04:07;4.72;;;4.32;;
17398;SDS011;8817;48.170;8.592;2023-05-29T15:06:34;5.10;;;4.65;;
17398;SDS011;8817;48.170;8.592;2023-05-29T15:09:02;6.70;;;4.57;;
17398;SDS011;8817;48.170;8.592;2023-05-29T15:11:29;4.60;;;4.30;;